createdAt,value
2023-02-22T00:02:25.637Z,11.93
2023-02-22T00:04:55.036Z,11.93
2023-02-22T00:07:26.198Z,11.93
2023-02-22T00:09:54.400Z,11.93
2023-02-22T00:12:22.573Z,11.89
2023-02-22T00:14:51.277Z,11.90
2023-02-22T00:17:20.752Z,11.86
2023-02-22T00:19:50.329Z,11.78
2023-02-22T00:22:19.153Z,11.72
2023-02-22T00:24:48.393Z,11.68
2023-02-22T00:27:16.983Z,11.67
2023-02-22T00:29:46.425Z,11.66
2023-02-22T00:32:15.488Z,11.67
2023-02-22T00:34:45.316Z,11.64
2023-02-22T00:37:13.387Z,11.59
2023-02-22T00:39:41.812Z,11.61
2023-02-22T00:42:09.919Z,11.56
2023-02-22T00:44:38.035Z,11.53
2023-02-22T00:47:06.137Z,11.46
2023-02-22T00:49:34.978Z,11.40
2023-02-22T00:52:05.396Z,11.40
2023-02-22T00:54:33.520Z,11.31
2023-02-22T00:57:01.673Z,11.22
2023-02-22T00:59:31.250Z,11.12
2023-02-22T01:01:59.782Z,11.09
2023-02-22T01:04:28.079Z,10.97
2023-02-22T01:06:56.373Z,11.04
2023-02-22T01:09:25.842Z,10.98
2023-02-22T01:11:56.472Z,11.01
2023-02-22T01:14:26.783Z,11.02
2023-02-22T01:16:55.572Z,10.99
2023-02-22T01:19:24.419Z,10.94
2023-02-22T01:21:52.898Z,11.02
2023-02-22T01:24:21.053Z,11.03
2023-02-22T01:26:53.630Z,11.03
2023-02-22T01:29:22.424Z,10.96
2023-02-22T01:31:55.704Z,10.98
2023-02-22T01:34:26.115Z,10.96
2023-02-22T01:36:54.238Z,11.05
2023-02-22T01:39:22.321Z,11.06
2023-02-22T01:41:53.763Z,11.13
2023-02-22T01:44:28.082Z,11.07
2023-02-22T01:46:56.530Z,11.04
2023-02-22T01:49:26.510Z,11.03
2023-02-22T01:51:59.048Z,10.88
2023-02-22T01:54:31.055Z,10.89
2023-02-22T01:57:06.524Z,10.70
2023-02-22T01:59:37.509Z,10.65
2023-02-22T02:02:06.274Z,10.48
2023-02-22T02:04:36.418Z,10.28
2023-02-22T02:07:08.965Z,9.98
2023-02-22T02:09:41.475Z,9.60
2023-02-22T02:12:13.699Z,9.49
2023-02-22T02:14:43.980Z,9.37
2023-02-22T02:17:14.404Z,9.35
2023-02-22T02:19:47.725Z,9.25
2023-02-22T02:22:31.624Z,9.26
2023-02-22T02:25:26.649Z,9.29
2023-02-22T02:28:28.367Z,9.37
2023-02-22T02:31:27.967Z,9.40
2023-02-22T02:34:02.202Z,9.34
2023-02-22T02:36:34.281Z,9.24
2023-02-22T02:39:10.385Z,9.20
2023-02-22T02:41:44.282Z,9.20
2023-02-22T02:44:17.045Z,9.19
2023-02-22T02:46:51.564Z,9.16
2023-02-22T02:49:26.633Z,9.11
2023-02-22T02:51:57.681Z,9.05
2023-02-22T02:54:26.588Z,8.97
2023-02-22T02:56:54.695Z,8.89
2023-02-22T02:59:29.275Z,8.85
2023-02-22T03:02:14.005Z,8.70
2023-02-22T03:04:54.688Z,8.70
2023-02-22T03:07:39.088Z,8.68
2023-02-22T03:10:22.337Z,8.72
2023-02-22T03:12:58.773Z,8.60
2023-02-22T03:15:36.952Z,8.53
2023-02-22T03:18:09.197Z,8.46
2023-02-22T03:20:46.629Z,8.38
2023-02-22T03:23:25.479Z,8.38
2023-02-22T03:25:57.269Z,8.34
2023-02-22T03:28:29.005Z,8.24
2023-02-22T03:31:02.172Z,8.21
2023-02-22T03:33:36.602Z,8.22
2023-02-22T03:36:13.577Z,8.18
2023-02-22T03:38:44.035Z,8.24
2023-02-22T03:41:15.405Z,8.42
2023-02-22T03:43:47.314Z,8.29
2023-02-22T03:46:19.401Z,8.19
2023-02-22T03:48:54.208Z,8.20
2023-02-22T03:51:25.045Z,8.31
2023-02-22T03:53:53.833Z,8.33
2023-02-22T03:56:25.176Z,8.31
2023-02-22T03:58:53.919Z,8.15
2023-02-22T04:01:23.937Z,8.02
2023-02-22T04:03:52.023Z,7.93
2023-02-22T04:06:20.220Z,7.85
2023-02-22T04:08:49.858Z,7.98
2023-02-22T04:11:18.348Z,8.10
2023-02-22T04:13:46.582Z,8.20
2023-02-22T04:16:14.753Z,8.31
2023-02-22T04:18:42.981Z,8.32
2023-02-22T04:21:11.252Z,8.38
2023-02-22T04:23:39.342Z,8.30
2023-02-22T04:26:08.812Z,8.21
2023-02-22T04:28:36.924Z,8.31
2023-02-22T04:31:05.366Z,8.52
2023-02-22T04:33:33.755Z,8.49
2023-02-22T04:36:01.922Z,8.02
2023-02-22T04:38:30.136Z,7.84
2023-02-22T04:40:58.335Z,7.65
2023-02-22T04:43:27.940Z,7.42
2023-02-22T04:45:56.062Z,7.22
2023-02-22T04:48:24.310Z,7.18
2023-02-22T04:50:52.415Z,6.97
2023-02-22T04:53:20.541Z,6.92
2023-02-22T04:55:48.805Z,6.96
2023-02-22T04:58:16.971Z,6.82
2023-02-22T05:00:46.766Z,6.84
2023-02-22T05:03:15.571Z,6.85
2023-02-22T05:05:43.944Z,6.83
2023-02-22T05:08:12.101Z,7.02
2023-02-22T05:10:40.155Z,7.25
2023-02-22T05:13:09.359Z,7.38
2023-02-22T05:15:37.689Z,7.56
2023-02-22T05:18:07.305Z,7.58
2023-02-22T05:20:37.090Z,7.59
2023-02-22T05:23:07.826Z,7.60
2023-02-22T05:25:35.923Z,7.67
2023-02-22T05:28:06.014Z,7.74
2023-02-22T05:30:44.169Z,7.85
2023-02-22T05:33:14.238Z,8.07
2023-02-22T05:35:42.384Z,8.37
2023-02-22T05:38:12.405Z,8.76
2023-02-22T05:40:40.516Z,9.54
2023-02-22T05:43:08.825Z,10.28
2023-02-22T05:45:37.352Z,10.62
2023-02-22T05:48:05.978Z,11.17
2023-02-22T05:50:36.116Z,11.62
2023-02-22T05:53:05.791Z,11.86
2023-02-22T05:55:35.025Z,12.28
2023-02-22T05:58:05.922Z,12.41
2023-02-22T06:00:34.527Z,12.38
2023-02-22T06:03:07.052Z,12.39
2023-02-22T06:05:37.375Z,12.36
2023-02-22T06:08:07.591Z,12.54
2023-02-22T06:10:36.073Z,12.42
2023-02-22T06:13:05.792Z,12.71
2023-02-22T06:15:34.406Z,12.91
2023-02-22T06:18:03.821Z,12.98
2023-02-22T06:20:33.483Z,12.92
2023-02-22T06:23:02.991Z,12.99
2023-02-22T06:25:32.880Z,12.75
2023-02-22T06:28:02.150Z,12.55
2023-02-22T06:30:31.314Z,13.11
2023-02-22T06:32:59.499Z,13.25
2023-02-22T06:35:27.989Z,12.92
2023-02-22T06:37:56.150Z,12.54
2023-02-22T06:40:29.623Z,12.39
2023-02-22T06:42:58.496Z,12.23
2023-02-22T06:45:27.225Z,12.32
2023-02-22T06:47:55.770Z,11.97
2023-02-22T06:50:27.225Z,11.94
2023-02-22T06:52:55.881Z,11.85
2023-02-22T06:55:27.040Z,11.98
2023-02-22T06:57:55.200Z,12.11
2023-02-22T07:00:28.953Z,12.14
2023-02-22T07:02:57.777Z,12.13
2023-02-22T07:05:27.888Z,12.14
2023-02-22T07:07:57.644Z,12.04
2023-02-22T07:10:29.701Z,12.28
2023-02-22T07:12:57.869Z,12.62
2023-02-22T07:15:28.691Z,12.34
2023-02-22T07:17:57.144Z,12.23
2023-02-22T07:20:26.730Z,11.93
2023-02-22T07:22:54.954Z,11.93
2023-02-22T07:25:24.539Z,11.82
2023-02-22T07:27:54.155Z,11.81
2023-02-22T07:30:26.184Z,11.78
2023-02-22T07:32:55.685Z,11.61
2023-02-22T07:35:26.448Z,11.32
2023-02-22T07:37:56.848Z,11.31
2023-02-22T07:40:26.122Z,11.55
2023-02-22T07:42:58.037Z,11.66
2023-02-22T07:45:28.327Z,11.88
2023-02-22T07:47:57.189Z,11.93
2023-02-22T07:50:26.615Z,11.95
2023-02-22T07:52:56.939Z,11.97
2023-02-22T07:55:27.409Z,11.92
2023-02-22T07:57:59.356Z,12.17
2023-02-22T08:00:29.448Z,12.14
2023-02-22T08:02:58.332Z,12.11
2023-02-22T08:05:28.104Z,12.13
2023-02-22T08:07:56.670Z,12.19
2023-02-22T08:10:26.696Z,12.53
2023-02-22T08:12:57.110Z,12.71
2023-02-22T08:15:29.566Z,12.63
2023-02-22T08:17:58.893Z,12.16
2023-02-22T08:20:27.208Z,12.19
2023-02-22T08:22:56.423Z,12.44
2023-02-22T08:25:27.316Z,12.71
2023-02-22T08:28:01.367Z,12.87
2023-02-22T08:30:31.268Z,12.46
2023-02-22T08:33:00.686Z,12.34
2023-02-22T08:35:28.971Z,12.43
2023-02-22T08:38:00.132Z,12.26
2023-02-22T08:40:31.173Z,12.25
2023-02-22T08:43:01.683Z,12.45
2023-02-22T08:45:30.569Z,12.78
2023-02-22T08:47:59.355Z,12.56
2023-02-22T08:50:29.362Z,12.59
2023-02-22T08:52:59.440Z,12.26
2023-02-22T08:55:32.396Z,12.20
2023-02-22T08:58:03.843Z,12.51
2023-02-22T09:00:34.296Z,12.69
2023-02-22T09:03:04.032Z,12.24
2023-02-22T09:05:32.483Z,12.36
2023-02-22T09:08:01.056Z,13.00
2023-02-22T09:10:31.068Z,13.49
2023-02-22T09:13:02.386Z,13.49
2023-02-22T09:15:31.780Z,13.70
2023-02-22T09:18:00.752Z,13.96
2023-02-22T09:20:29.732Z,13.80
2023-02-22T09:22:58.220Z,13.08
2023-02-22T09:25:27.285Z,12.79
2023-02-22T09:27:56.310Z,13.12
2023-02-22T09:30:32.238Z,13.34
2023-02-22T09:33:02.290Z,12.96
2023-02-22T09:35:30.682Z,12.67
2023-02-22T09:38:01.515Z,13.02
2023-02-22T09:40:32.632Z,13.36
2023-02-22T09:43:15.208Z,12.67
2023-02-22T09:46:03.213Z,12.41
2023-02-22T09:48:33.130Z,12.61
2023-02-22T09:51:04.315Z,12.04
2023-02-22T09:53:37.093Z,11.46
2023-02-22T09:56:11.177Z,11.47
2023-02-22T09:58:43.194Z,11.78
2023-02-22T10:01:28.393Z,12.17
2023-02-22T10:04:03.151Z,12.26
2023-02-22T10:06:33.641Z,11.90
2023-02-22T10:09:08.058Z,12.39
2023-02-22T10:11:52.413Z,12.15
2023-02-22T10:14:44.219Z,12.05
2023-02-22T10:17:24.120Z,12.00
2023-02-22T10:20:06.246Z,12.28
2023-02-22T10:22:46.155Z,12.00
2023-02-22T10:25:18.170Z,12.51
2023-02-22T10:27:50.212Z,12.34
2023-02-22T10:30:25.244Z,12.81
2023-02-22T10:33:00.848Z,13.14
2023-02-22T10:35:31.511Z,12.76
2023-02-22T10:38:05.437Z,13.21
2023-02-22T10:40:33.846Z,12.69
2023-02-22T10:43:06.583Z,12.33
2023-02-22T10:45:37.252Z,12.21
2023-02-22T10:48:11.722Z,12.07
2023-02-22T10:50:42.428Z,11.81
2023-02-22T10:53:11.598Z,11.41
2023-02-22T10:56:24.406Z,11.30
2023-02-22T10:58:55.694Z,11.50
2023-02-22T11:01:28.260Z,11.30
2023-02-22T11:04:04.296Z,11.25
2023-02-22T11:06:35.486Z,11.25
2023-02-22T11:09:11.509Z,11.48
2023-02-22T11:11:41.334Z,11.26
2023-02-22T11:14:10.864Z,10.86
2023-02-22T11:16:41.818Z,10.80
2023-02-22T11:19:24.169Z,10.89
2023-02-22T11:21:55.471Z,10.92
2023-02-22T11:24:30.291Z,11.14
2023-02-22T11:27:07.614Z,10.94
2023-02-22T11:29:38.328Z,10.52
2023-02-22T11:32:22.613Z,10.52
2023-02-22T11:35:03.577Z,10.49
2023-02-22T11:37:38.256Z,10.60
2023-02-22T11:40:14.009Z,10.68
2023-02-22T11:42:42.177Z,10.75
2023-02-22T11:45:20.844Z,10.88
2023-02-22T11:47:59.175Z,10.79
2023-02-22T11:50:32.039Z,10.69
2023-02-22T11:53:25.415Z,10.88
2023-02-22T11:56:10.703Z,10.73
2023-02-22T11:58:47.325Z,10.92
2023-02-22T12:01:26.475Z,10.66
2023-02-22T12:04:40.421Z,10.60
2023-02-22T12:07:38.275Z,10.45
2023-02-22T12:10:22.898Z,10.11
2023-02-22T12:13:09.796Z,10.15
2023-02-22T12:15:43.983Z,9.86
2023-02-22T12:18:25.914Z,9.82
2023-02-22T12:20:58.636Z,9.86
2023-02-22T12:23:32.619Z,9.85
2023-02-22T12:26:06.827Z,10.21
2023-02-22T12:28:39.445Z,10.33
2023-02-22T12:31:21.140Z,10.65
2023-02-22T12:33:56.824Z,10.67
2023-02-22T12:36:33.616Z,10.19
2023-02-22T12:39:07.597Z,9.97
2023-02-22T12:41:46.011Z,9.91
2023-02-22T12:44:20.367Z,9.98
2023-02-22T12:46:52.754Z,10.00
2023-02-22T12:49:28.328Z,9.84
2023-02-22T12:52:21.262Z,9.81
2023-02-22T12:54:57.634Z,9.84
2023-02-22T12:57:38.031Z,9.75
2023-02-22T13:00:11.298Z,9.60
2023-02-22T13:02:45.291Z,9.61
2023-02-22T13:05:17.864Z,9.49
2023-02-22T13:07:57.713Z,9.84
2023-02-22T13:10:36.667Z,10.06
2023-02-22T13:13:16.398Z,10.06
2023-02-22T13:15:52.755Z,10.30
2023-02-22T13:18:27.684Z,10.41
2023-02-22T13:21:02.091Z,10.48
2023-02-22T13:23:44.411Z,10.71
2023-02-22T13:26:21.568Z,10.54
2023-02-22T13:28:59.743Z,10.53
2023-02-22T13:31:42.120Z,10.52
2023-02-22T13:34:54.381Z,10.27
2023-02-22T13:37:47.192Z,10.20
2023-02-22T13:40:44.672Z,10.04
2023-02-22T13:43:29.399Z,9.81
2023-02-22T13:46:28.287Z,9.65
2023-02-22T13:49:31.607Z,9.80
2023-02-22T13:52:02.310Z,9.70
2023-02-22T13:54:41.653Z,9.69
2023-02-22T13:57:21.295Z,9.58
2023-02-22T13:59:49.690Z,9.31
2023-02-22T14:02:58.976Z,9.22
2023-02-22T14:05:51.640Z,9.21
2023-02-22T14:08:47.946Z,9.20
2023-02-22T14:11:56.853Z,9.13
2023-02-22T14:14:25.884Z,9.17
2023-02-22T14:17:23.325Z,9.08
2023-02-22T14:20:32.232Z,9.07
2023-02-22T14:23:31.182Z,9.17
2023-02-22T14:26:12.797Z,9.20
2023-02-22T14:28:48.810Z,9.10
2023-02-22T14:31:34.403Z,9.06
2023-02-22T14:34:07.803Z,8.96
2023-02-22T14:36:46.047Z,8.82
2023-02-22T14:39:20.955Z,8.84
2023-02-22T14:41:57.655Z,8.75
2023-02-22T14:44:30.440Z,8.77
2023-02-22T14:47:02.586Z,8.69
2023-02-22T14:49:36.238Z,8.53
2023-02-22T14:52:16.156Z,8.39
2023-02-22T14:54:58.097Z,8.46
2023-02-22T14:57:33.333Z,8.39
2023-02-22T15:00:19.775Z,8.33
2023-02-22T15:02:49.501Z,8.29
2023-02-22T15:05:20.999Z,8.23
2023-02-22T15:07:56.902Z,8.31
2023-02-22T15:10:29.388Z,8.10
2023-02-22T15:13:09.876Z,7.95
2023-02-22T15:15:40.825Z,7.84
2023-02-22T15:18:22.093Z,7.81
2023-02-22T15:20:56.245Z,7.78
2023-02-22T15:23:33.403Z,7.58
2023-02-22T15:26:01.971Z,7.57
2023-02-22T15:28:32.316Z,7.39
2023-02-22T15:31:18.335Z,7.36
2023-02-22T15:33:47.173Z,7.24
2023-02-22T15:36:17.922Z,7.14
2023-02-22T15:38:51.560Z,7.08
2023-02-22T15:41:28.027Z,7.06
2023-02-22T15:44:14.231Z,7.03
2023-02-22T15:46:49.735Z,6.93
2023-02-22T15:49:24.692Z,6.93
2023-02-22T15:52:06.967Z,6.92
2023-02-22T15:54:49.049Z,6.86
2023-02-22T15:57:20.315Z,6.82
2023-02-22T15:59:56.114Z,6.83
2023-02-22T16:02:35.917Z,6.82
2023-02-22T16:05:08.617Z,6.84
2023-02-22T16:07:45.448Z,6.83
2023-02-22T16:10:33.870Z,6.73
2023-02-22T16:13:16.641Z,6.84
2023-02-22T16:15:57.631Z,6.90
2023-02-22T16:18:31.271Z,6.85
2023-02-22T16:21:01.439Z,6.83
2023-02-22T16:23:30.911Z,6.77
2023-02-22T16:26:25.389Z,6.74
2023-02-22T16:28:56.311Z,6.74
2023-02-22T16:31:26.439Z,6.72
2023-02-22T16:33:55.227Z,6.70
2023-02-22T16:36:37.761Z,6.77
2023-02-22T16:39:07.683Z,6.74
2023-02-22T16:41:37.381Z,6.67
2023-02-22T16:44:07.825Z,6.60
2023-02-22T16:46:38.058Z,6.69
2023-02-22T16:49:06.677Z,6.71
2023-02-22T16:51:42.168Z,6.68
2023-02-22T16:54:14.030Z,6.64
2023-02-22T16:56:43.669Z,6.61
2023-02-22T16:59:15.460Z,6.64
2023-02-22T17:01:44.488Z,6.67
2023-02-22T17:04:17.732Z,6.64
2023-02-22T17:06:46.201Z,6.63
2023-02-22T17:09:16.517Z,6.52
2023-02-22T17:11:46.471Z,6.50
2023-02-22T17:14:19.237Z,6.47
2023-02-22T17:16:47.850Z,6.53
2023-02-22T17:19:17.682Z,6.54
2023-02-22T17:21:45.917Z,6.55
2023-02-22T17:24:14.515Z,6.52
2023-02-22T17:26:45.484Z,6.49
2023-02-22T17:29:15.358Z,6.50
2023-02-22T17:31:44.256Z,6.62
2023-02-22T17:34:12.646Z,6.55
2023-02-22T17:36:40.930Z,6.53
2023-02-22T17:39:10.743Z,6.58
2023-02-22T17:41:40.697Z,6.59
2023-02-22T17:44:10.876Z,6.63
2023-02-22T17:46:40.928Z,6.61
2023-02-22T17:49:09.295Z,6.57
2023-02-22T17:51:42.654Z,6.58
2023-02-22T17:54:10.825Z,6.63
2023-02-22T17:56:38.932Z,6.71
2023-02-22T17:59:09.198Z,6.69
2023-02-22T18:01:39.271Z,6.72
2023-02-22T18:04:07.853Z,6.65
2023-02-22T18:06:38.120Z,6.61
2023-02-22T18:09:10.759Z,6.63
2023-02-22T18:11:41.086Z,6.66
2023-02-22T18:14:10.923Z,6.71
2023-02-22T18:16:41.591Z,6.74
2023-02-22T18:19:09.833Z,6.75
2023-02-22T18:21:38.701Z,6.79
2023-02-22T18:24:08.764Z,6.82
2023-02-22T18:26:39.095Z,6.75
2023-02-22T18:29:07.391Z,6.78
2023-02-22T18:31:35.699Z,6.82
2023-02-22T18:34:05.454Z,6.71
2023-02-22T18:36:34.044Z,6.62
2023-02-22T18:39:03.286Z,6.70
2023-02-22T18:41:31.430Z,6.76
2023-02-22T18:44:00.529Z,6.70
2023-02-22T18:46:30.288Z,6.74
2023-02-22T18:48:59.254Z,6.57
2023-02-22T18:51:30.059Z,6.55
2023-02-22T18:54:01.067Z,6.62
2023-02-22T18:56:30.939Z,6.68
2023-02-22T18:59:00.486Z,6.76
2023-02-22T19:01:29.426Z,6.82
2023-02-22T19:03:57.752Z,6.76
2023-02-22T19:06:26.039Z,6.74
2023-02-22T19:08:55.557Z,6.76
2023-02-22T19:11:25.695Z,6.79
2023-02-22T19:13:58.260Z,6.70
2023-02-22T19:16:27.865Z,6.74
2023-02-22T19:18:58.116Z,6.71
2023-02-22T19:21:27.740Z,6.76
2023-02-22T19:23:57.336Z,6.70
2023-02-22T19:26:27.707Z,6.70
2023-02-22T19:28:57.706Z,6.70
2023-02-22T19:31:30.300Z,6.72
2023-02-22T19:34:02.089Z,6.73
2023-02-22T19:36:30.599Z,6.70
2023-02-22T19:39:02.058Z,6.65
2023-02-22T19:41:30.718Z,6.66
2023-02-22T19:43:59.451Z,6.63
2023-02-22T19:46:28.303Z,6.54
2023-02-22T19:48:57.818Z,6.49
2023-02-22T19:51:28.847Z,6.54
2023-02-22T19:53:59.928Z,6.47
2023-02-22T19:56:31.179Z,6.38
2023-02-22T19:59:01.334Z,6.38
2023-02-22T20:01:33.277Z,6.31
2023-02-22T20:04:03.852Z,6.28
2023-02-22T20:06:35.167Z,6.29
2023-02-22T20:09:04.287Z,6.24
2023-02-22T20:11:34.445Z,6.20
2023-02-22T20:14:02.618Z,6.27
2023-02-22T20:16:31.219Z,6.20
2023-02-22T20:18:59.958Z,6.25
2023-02-22T20:21:31.292Z,6.33
2023-02-22T20:23:59.454Z,6.27
2023-02-22T20:26:30.607Z,6.26
2023-02-22T20:29:00.854Z,6.39
2023-02-22T20:31:29.707Z,6.29
2023-02-22T20:34:00.485Z,6.22
2023-02-22T20:36:30.129Z,6.23
2023-02-22T20:39:00.095Z,6.22
2023-02-22T20:41:29.974Z,6.26
2023-02-22T20:44:00.709Z,6.26
2023-02-22T20:46:31.887Z,6.13
2023-02-22T20:49:01.621Z,6.11
2023-02-22T20:51:30.199Z,6.08
2023-02-22T20:54:00.050Z,6.06
2023-02-22T20:56:30.095Z,6.03
2023-02-22T20:59:02.297Z,6.00
2023-02-22T21:01:30.888Z,5.89
2023-02-22T21:04:02.130Z,5.84
2023-02-22T21:06:31.068Z,5.78
2023-02-22T21:09:02.739Z,5.73
2023-02-22T21:11:32.653Z,5.71
2023-02-22T21:14:03.074Z,5.67
2023-02-22T21:16:34.127Z,5.63
2023-02-22T21:19:04.389Z,5.58
2023-02-22T21:21:32.943Z,5.91
2023-02-22T21:24:02.228Z,5.86
2023-02-22T21:26:32.366Z,5.82
2023-02-22T21:29:04.915Z,5.79
2023-02-22T21:31:34.746Z,5.85
2023-02-22T21:34:04.281Z,5.85
2023-02-22T21:36:33.207Z,5.91
2023-02-22T21:39:08.596Z,5.90
2023-02-22T21:41:39.209Z,5.88
2023-02-22T21:44:10.142Z,5.85
2023-02-22T21:46:38.485Z,5.91
2023-02-22T21:49:06.753Z,5.83
2023-02-22T21:51:37.814Z,5.67
2023-02-22T21:54:08.704Z,5.56
2023-02-22T21:56:38.649Z,5.47
2023-02-22T21:59:12.780Z,5.53
2023-02-22T22:01:47.305Z,5.43
2023-02-22T22:04:18.970Z,5.37
2023-02-22T22:06:48.791Z,5.33
2023-02-22T22:09:20.222Z,5.31
2023-02-22T22:11:50.791Z,5.28
2023-02-22T22:14:22.070Z,5.25
2023-02-22T22:16:51.356Z,5.25
2023-02-22T22:19:19.571Z,5.31
2023-02-22T22:21:49.317Z,5.32
2023-02-22T22:24:20.629Z,5.36
2023-02-22T22:26:51.202Z,5.50
2023-02-22T22:29:20.771Z,5.67
2023-02-22T22:31:49.021Z,5.78
2023-02-22T22:34:17.524Z,5.89
2023-02-22T22:36:45.943Z,5.74
2023-02-22T22:39:14.159Z,5.75
2023-02-22T22:41:44.161Z,5.86
2023-02-22T22:44:15.391Z,5.73
2023-02-22T22:46:49.271Z,5.50
2023-02-22T22:49:18.533Z,5.33
2023-02-22T22:51:47.530Z,5.43
2023-02-22T22:54:16.077Z,5.68
2023-02-22T22:56:44.330Z,5.55
2023-02-22T22:59:13.547Z,5.60
2023-02-22T23:01:45.419Z,5.61
2023-02-22T23:04:16.535Z,5.61
2023-02-22T23:06:46.294Z,5.43
2023-02-22T23:09:18.901Z,5.46
2023-02-22T23:11:50.987Z,5.52
2023-02-22T23:14:21.038Z,5.59
2023-02-22T23:16:52.348Z,5.53
2023-02-22T23:19:20.992Z,5.51
2023-02-22T23:21:50.892Z,5.39
2023-02-22T23:24:21.391Z,5.44
2023-02-22T23:26:49.940Z,5.52
2023-02-22T23:29:19.943Z,5.46
2023-02-22T23:31:49.089Z,5.58
2023-02-22T23:34:21.363Z,5.54
2023-02-22T23:36:50.189Z,5.56
2023-02-22T23:39:21.576Z,5.46
2023-02-22T23:41:51.652Z,5.37
2023-02-22T23:44:20.301Z,5.39
2023-02-22T23:46:49.836Z,5.46
2023-02-22T23:49:20.642Z,5.45
2023-02-22T23:51:50.298Z,5.44
2023-02-22T23:54:20.419Z,5.40
2023-02-22T23:56:56.720Z,5.37
2023-02-22T23:59:25.991Z,5.35
